createdAt,value
2022-08-05T00:01:28.103Z,2.88
2022-08-05T00:06:33.232Z,3.50
2022-08-05T00:11:49.497Z,2.78
2022-08-05T00:17:01.973Z,2.80
2022-08-05T00:22:06.067Z,3.20
2022-08-05T00:27:16.585Z,3.50
2022-08-05T00:32:20.373Z,3.60
2022-08-05T00:37:35.574Z,3.28
2022-08-05T00:42:53.495Z,3.47
2022-08-05T00:48:05.500Z,4.03
2022-08-05T00:53:09.892Z,4.30
2022-08-05T00:58:33.834Z,3.90
2022-08-05T01:03:36.873Z,3.80
2022-08-05T01:08:44.341Z,3.92
2022-08-05T01:13:59.895Z,3.85
2022-08-05T01:19:14.310Z,3.35
2022-08-05T01:24:34.602Z,3.75
2022-08-05T01:29:44.892Z,3.40
2022-08-05T01:34:56.763Z,4.03
2022-08-05T01:40:01.031Z,3.40
2022-08-05T01:45:08.077Z,3.30
2022-08-05T01:50:16.025Z,3.58
2022-08-05T01:55:23.973Z,3.17
2022-08-05T02:00:31.136Z,3.38
2022-08-05T02:05:37.933Z,3.20
2022-08-05T02:10:52.448Z,3.33
2022-08-05T02:16:05.041Z,4.10
2022-08-05T02:21:15.533Z,4.10
2022-08-05T02:26:23.308Z,3.78
2022-08-05T02:31:34.863Z,3.80
2022-08-05T02:36:42.776Z,3.58
2022-08-05T02:42:00.614Z,3.88
2022-08-05T02:47:08.657Z,4.00
2022-08-05T02:52:29.475Z,4.22
2022-08-05T02:58:10.734Z,3.70
2022-08-05T03:03:01.658Z,4.00
2022-08-05T03:08:08.513Z,3.42
2022-08-05T03:13:16.903Z,4.15
2022-08-05T03:18:24.750Z,3.60
2022-08-05T03:23:34.288Z,2.88
2022-08-05T03:28:38.460Z,2.97
2022-08-05T03:33:51.102Z,3.00
2022-08-05T03:38:54.707Z,2.95
2022-08-05T03:44:08.461Z,3.10
2022-08-05T03:49:16.058Z,2.88
2022-08-05T03:55:34.325Z,2.58
2022-08-05T03:59:55.012Z,2.88
2022-08-05T04:05:01.304Z,2.65
2022-08-05T04:10:05.022Z,3.10
2022-08-05T04:15:09.022Z,2.70
2022-08-05T04:20:22.141Z,3.13
2022-08-05T04:25:56.670Z,3.35
2022-08-05T04:30:49.850Z,3.20
2022-08-05T04:36:11.290Z,3.45
2022-08-05T04:41:17.501Z,3.30
2022-08-05T04:46:28.164Z,2.85
2022-08-05T04:51:33.099Z,2.65
2022-08-05T04:56:37.854Z,2.70
2022-08-05T05:02:07.817Z,3.00
2022-08-05T05:07:09.434Z,2.60
2022-08-05T05:12:29.237Z,3.05
2022-08-05T05:17:55.488Z,3.08
2022-08-05T05:23:08.415Z,2.22
2022-08-05T05:28:23.005Z,2.20
2022-08-05T05:33:27.873Z,2.75
2022-08-05T05:38:32.246Z,2.22
2022-08-05T05:43:56.663Z,2.70
2022-08-05T05:48:58.417Z,2.63
2022-08-05T05:54:11.519Z,2.67
2022-08-05T05:59:14.652Z,2.28
2022-08-05T06:04:17.708Z,2.45
2022-08-05T06:09:25.852Z,2.17
2022-08-05T06:14:40.273Z,2.53
2022-08-05T06:19:43.470Z,2.33
2022-08-05T06:25:00.828Z,2.20
2022-08-05T06:30:20.228Z,2.55
2022-08-05T06:36:07.469Z,2.00
2022-08-05T06:40:49.399Z,1.80
2022-08-05T06:46:06.866Z,1.73
2022-08-05T06:51:23.882Z,2.03
2022-08-05T06:56:35.203Z,1.40
2022-08-05T07:01:40.772Z,1.23
2022-08-05T07:06:45.497Z,1.63
2022-08-05T07:11:55.856Z,1.77
2022-08-05T07:17:59.794Z,1.40
2022-08-05T07:22:28.271Z,1.10
2022-08-05T07:27:57.086Z,1.15
2022-08-05T07:32:57.386Z,1.15
2022-08-05T07:38:00.658Z,0.90
2022-08-05T07:43:14.638Z,1.25
2022-08-05T07:49:03.026Z,0.95
2022-08-05T07:53:50.638Z,1.05
2022-08-05T07:58:58.977Z,0.80
2022-08-05T08:04:03.111Z,0.90
2022-08-05T08:09:07.322Z,1.10
2022-08-05T08:14:11.802Z,0.70
2022-08-05T08:20:22.899Z,1.60
2022-08-05T08:24:51.235Z,0.80
2022-08-05T08:30:05.503Z,0.60
2022-08-05T08:35:20.809Z,0.60
2022-08-05T08:40:31.483Z,0.60
2022-08-05T08:45:38.672Z,1.45
2022-08-05T08:51:03.355Z,0.75
2022-08-05T08:56:09.200Z,0.73
2022-08-05T09:01:15.746Z,0.90
2022-08-05T09:06:21.382Z,0.88
2022-08-05T09:11:50.685Z,0.80
2022-08-05T09:16:52.927Z,0.88
2022-08-05T09:22:22.001Z,0.63
2022-08-05T09:28:03.847Z,0.65
2022-08-05T09:33:02.733Z,1.10
2022-08-05T09:38:17.690Z,0.80
2022-08-05T09:43:40.804Z,1.00
2022-08-05T09:49:03.696Z,0.57
2022-08-05T09:54:11.505Z,0.65
2022-08-05T09:59:17.316Z,0.60
2022-08-05T10:04:29.184Z,0.73
2022-08-05T10:09:44.871Z,0.70
2022-08-05T10:14:48.556Z,0.52
2022-08-05T10:20:03.754Z,1.02
2022-08-05T10:25:14.257Z,1.02
2022-08-05T10:31:20.587Z,0.90
2022-08-05T10:35:44.340Z,0.88
2022-08-05T10:40:58.141Z,0.60
2022-08-05T10:46:06.435Z,0.85
2022-08-05T10:51:22.295Z,1.05
2022-08-05T10:56:27.304Z,0.93
2022-08-05T11:01:55.095Z,0.60
2022-08-05T11:07:11.966Z,1.10
2022-08-05T11:12:50.226Z,1.05
2022-08-05T11:17:59.858Z,0.77
2022-08-05T11:24:04.527Z,0.40
2022-08-05T11:29:12.757Z,0.57
2022-08-05T11:34:22.521Z,0.60
2022-08-05T11:39:55.645Z,0.60
2022-08-05T11:45:14.358Z,0.60
2022-08-05T11:50:26.371Z,0.47
2022-08-05T11:55:31.938Z,0.63
2022-08-05T12:00:41.269Z,0.50
2022-08-05T12:05:44.854Z,0.60
2022-08-05T12:10:50.619Z,0.47
2022-08-05T12:15:55.866Z,0.43
2022-08-05T12:21:11.014Z,0.50
2022-08-05T12:26:16.799Z,0.70
2022-08-05T12:31:23.675Z,0.65
2022-08-05T12:36:38.228Z,0.73
2022-08-05T12:41:43.918Z,0.40
2022-08-05T12:46:53.949Z,0.60
2022-08-05T12:52:12.660Z,0.60
2022-08-05T12:57:23.223Z,0.52
2022-08-05T13:02:30.747Z,0.73
2022-08-05T13:07:59.751Z,0.70
2022-08-05T13:12:58.790Z,0.60
2022-08-05T13:18:01.872Z,0.57
2022-08-05T13:23:07.379Z,0.57
2022-08-05T13:28:12.950Z,0.50
2022-08-05T13:34:24.440Z,0.57
2022-08-05T13:38:42.653Z,0.50
2022-08-05T13:43:54.804Z,0.50
2022-08-05T13:49:01.021Z,0.40
2022-08-05T13:54:12.594Z,0.50
2022-08-05T13:59:19.427Z,0.57
2022-08-05T14:04:41.148Z,0.40
2022-08-05T14:09:46.361Z,0.40
2022-08-05T14:14:51.559Z,0.40
2022-08-05T14:20:00.847Z,0.75
2022-08-05T14:25:19.011Z,0.60
2022-08-05T14:30:27.907Z,0.60
2022-08-05T14:35:36.257Z,0.50
2022-08-05T14:40:54.191Z,0.50
2022-08-05T14:45:58.744Z,0.50
2022-08-05T14:51:03.149Z,0.60
2022-08-05T14:56:06.705Z,0.52
2022-08-05T15:01:16.199Z,0.60
2022-08-05T15:06:20.850Z,0.70
2022-08-05T15:11:53.037Z,0.80
2022-08-05T15:16:57.933Z,0.68
2022-08-05T15:22:01.669Z,0.70
2022-08-05T15:27:05.135Z,0.70
2022-08-05T15:32:13.501Z,0.60
2022-08-05T15:37:22.208Z,0.80
2022-08-05T15:42:55.072Z,0.70
2022-08-05T15:48:05.597Z,1.73
2022-08-05T15:53:10.852Z,0.90
2022-08-05T15:58:16.581Z,1.02
2022-08-05T16:03:21.600Z,0.93
2022-08-05T16:08:24.611Z,0.50
2022-08-05T16:13:34.754Z,0.90
2022-08-05T16:18:52.285Z,0.65
2022-08-05T16:23:58.061Z,0.80
2022-08-05T16:29:04.621Z,0.90
2022-08-05T16:34:12.718Z,1.30
2022-08-05T16:39:18.147Z,1.05
2022-08-05T16:44:25.686Z,0.75
2022-08-05T16:49:30.129Z,0.95
2022-08-05T16:54:33.324Z,1.13
2022-08-05T17:00:03.043Z,1.08
2022-08-05T17:05:00.582Z,1.15
2022-08-05T17:10:03.953Z,0.70
2022-08-05T17:15:09.254Z,1.20
2022-08-05T17:20:14.755Z,0.85
2022-08-05T17:25:33.691Z,0.80
2022-08-05T17:30:50.346Z,1.10
2022-08-05T17:36:08.422Z,1.00
2022-08-05T17:42:16.368Z,1.17
2022-08-05T17:46:36.569Z,1.17
2022-08-05T17:51:41.127Z,1.00
2022-08-05T17:56:44.618Z,1.17
2022-08-05T18:01:50.174Z,0.88
2022-08-05T18:06:54.552Z,1.30
2022-08-05T18:12:03.862Z,1.40
2022-08-05T18:17:07.086Z,1.00
2022-08-05T18:22:36.220Z,0.98
2022-08-05T18:27:39.453Z,1.02
2022-08-05T18:33:00.193Z,1.02
2022-08-05T18:38:05.639Z,1.50
2022-08-05T18:43:09.189Z,1.27
2022-08-05T18:48:31.550Z,1.50
2022-08-05T18:53:43.121Z,1.40
2022-08-05T18:58:50.845Z,1.35
2022-08-05T19:03:56.820Z,0.88
2022-08-05T19:09:01.557Z,1.15
2022-08-05T19:14:15.217Z,1.17
2022-08-05T19:19:27.536Z,1.40
2022-08-05T19:24:35.182Z,1.30
2022-08-05T19:29:38.816Z,1.55
2022-08-05T19:34:42.082Z,1.45
2022-08-05T19:40:00.572Z,1.35
2022-08-05T19:45:06.428Z,1.00
2022-08-05T19:50:10.567Z,1.00
2022-08-05T19:56:13.641Z,1.30
2022-08-05T20:00:39.599Z,1.20
2022-08-05T20:05:50.377Z,1.20
2022-08-05T20:10:56.722Z,1.67
2022-08-05T20:16:00.195Z,1.50
2022-08-05T20:21:04.693Z,1.52
2022-08-05T20:26:16.474Z,1.98
2022-08-05T20:31:28.453Z,1.35
2022-08-05T20:36:44.899Z,1.63
2022-08-05T20:41:49.281Z,1.60
2022-08-05T20:46:52.477Z,1.27
2022-08-05T20:51:57.348Z,1.50
2022-08-05T20:57:03.473Z,1.50
2022-08-05T21:02:06.658Z,1.30
2022-08-05T21:07:09.967Z,1.40
2022-08-05T21:12:19.386Z,1.45
2022-08-05T21:17:22.452Z,1.40
2022-08-05T21:22:25.572Z,1.77
2022-08-05T21:27:38.641Z,1.40
2022-08-05T21:32:42.083Z,1.42
2022-08-05T21:37:52.949Z,1.60
2022-08-05T21:42:59.093Z,1.80
2022-08-05T21:48:02.527Z,1.52
2022-08-05T21:53:17.506Z,1.92
2022-08-05T21:58:28.832Z,1.73
2022-08-05T22:03:48.444Z,1.77
2022-08-05T22:08:54.741Z,1.63
2022-08-05T22:14:19.654Z,1.50
2022-08-05T22:20:03.179Z,2.08
2022-08-05T22:25:03.320Z,2.17
2022-08-05T22:30:09.242Z,2.45
2022-08-05T22:35:14.175Z,1.92
2022-08-05T22:40:20.434Z,2.05
2022-08-05T22:45:26.534Z,1.73
2022-08-05T22:50:29.513Z,1.83
2022-08-05T22:55:56.413Z,2.25
2022-08-05T23:00:57.123Z,2.13
2022-08-05T23:06:00.188Z,2.00
2022-08-05T23:11:04.208Z,1.95
2022-08-05T23:16:09.190Z,1.52
2022-08-05T23:21:12.124Z,1.70
2022-08-05T23:26:19.974Z,1.48
2022-08-05T23:31:25.981Z,1.90
2022-08-05T23:36:39.865Z,1.58
2022-08-05T23:41:48.700Z,1.88
2022-08-05T23:46:53.341Z,1.92
2022-08-05T23:52:16.693Z,1.50
2022-08-05T23:57:19.596Z,1.55
